الصفحة الرئيسية
METAR-TAF:

METAR-TAF

مطار :

Koné, نيو كاليدونيا

دائرة عرض: 21-03-12S, خط طول: 164-50-18E, ارتفاع: 7 متر

METAR: مفقودة

زمن: 01:22 (14:22 UTC)

توقعات

تاريخ ووقت الإصدار 21ساعات و 22 دقيقة قبل الساعة 17:00UTC
التوقعات صالحة من05 الساعة 18 UTC إلى 06 الساعة 18 UTC
ريح 2 عقدةمن اتجاهات متغيرة
الرؤية 10 كم أو أكثر
غيوم متفرقة على ارتفاع 1000 قدم
غيوم مفككة على ارتفاع 2500 قدم
ملبد بالغيوم على ارتفاع 10000 قدم
مؤقت
من 05 الساعة 18 UTC إلى 06 الساعة 18 UTC
الرؤية: 4000 متر
غيوم مفككة على ارتفاع 1400 قدم
مطر
أصبح
من 05 الساعة 21 UTC إلى 05 الساعة 23 UTC
ريح 20 عقدة من الشمال/الشمال الغربي تتزايد حتى 40 عقدة
مؤقت
من 06 الساعة 00 UTC إلى 06 الساعة 09 UTC
ريح 40 عقدةمن اتجاهات متغيرة تتزايد حتى 80 عقدة
الرؤية: 1200 متر
غيوم مفككة على ارتفاع 500 قدم
غيوم مفككة على ارتفاع 1000 قدم
غيوم متفرقة على ارتفاع 1500 قدم, مزنة ركامية.
غيوم متفرقة على ارتفاع 1800 قدم, مزن ركامية عمودية.
عاصفة رعدية, مطر

TAF: NWWD 051700Z 0518/0618 VRB02KT 9999 SCT010 BKN025 OVC100 TEMPO 0518/0618 4000 RA BKN014 BECMG 0521/0523 34020G40KT TEMPO 0600/0609 VRB40G80KT 1200 TSRA BKN005 BKN010 SCT015CB SCT018TCU

أرصاد الطقس والتوقعات من أكثر من 4000 مطار (تقارير الطقس للمطار METAR والتنبؤ بالطقس بالمطارTAF).

المحطات المتاحة هي النقط الصفراء والحمراء على الخريطة.

حرك المؤشر فوق النقطة لمعرفة اسم المحطة.

ثم انقر لمعرفة أرصاد وتوقعات الطقس.

لتغيير الخارطة: اضغط على الأزرار الخضراء مع رمز الصليب الأسود للتكبير. على الزر الأخضر مع شرطة للتصغير، أو على الأسهم الخضراء للخرائط المجاورة.


METAR-TAF: